createdAt,value
2022-12-25T00:19:46.775Z,100
2022-12-25T00:39:46.719Z,100
2022-12-25T00:59:46.782Z,100
2022-12-25T01:19:46.817Z,100
2022-12-25T01:39:46.943Z,100
2022-12-25T01:59:46.970Z,100
2022-12-25T02:19:46.976Z,100
2022-12-25T02:39:46.972Z,100
2022-12-25T02:59:47.107Z,100
2022-12-25T03:19:47.357Z,100
2022-12-25T03:39:47.125Z,100
2022-12-25T03:59:47.181Z,100
2022-12-25T04:19:47.220Z,100
2022-12-25T04:39:47.243Z,100
2022-12-25T04:59:47.372Z,100
2022-12-25T05:19:47.357Z,100
2022-12-25T05:39:47.378Z,100
2022-12-25T05:59:47.507Z,100
2022-12-25T06:19:47.587Z,100
2022-12-25T06:39:47.448Z,100
2022-12-25T06:59:53.124Z,100
2022-12-25T07:19:47.675Z,100
2022-12-25T07:39:47.670Z,100
2022-12-25T07:59:47.681Z,100
2022-12-25T08:19:47.732Z,100
2022-12-25T08:39:47.820Z,100
2022-12-25T08:59:47.993Z,100
2022-12-25T09:19:47.850Z,100
2022-12-25T09:39:47.851Z,100
2022-12-25T09:59:47.987Z,100
2022-12-25T10:19:47.972Z,100
2022-12-25T10:39:48.147Z,100
2022-12-25T10:59:48.013Z,100
2022-12-25T11:19:48.100Z,100
2022-12-25T11:39:48.145Z,100
2022-12-25T11:59:48.181Z,100
2022-12-25T12:19:48.247Z,100
2022-12-25T12:39:48.306Z,99.9
2022-12-25T12:59:48.322Z,99.8
2022-12-25T13:19:48.304Z,99.6
2022-12-25T13:39:48.391Z,99.5
2022-12-25T13:59:48.435Z,99.2
2022-12-25T14:19:48.438Z,98.8
2022-12-25T14:39:48.531Z,98.2
2022-12-25T14:59:48.561Z,98.1
2022-12-25T15:19:48.546Z,98.4
2022-12-25T15:39:48.595Z,98.7
2022-12-25T15:59:48.721Z,99
2022-12-25T16:19:48.749Z,99.3
2022-12-25T16:39:48.715Z,99.5
2022-12-25T16:59:48.724Z,99.6
2022-12-25T17:19:48.870Z,99.7
2022-12-25T17:39:48.882Z,99.8
2022-12-25T17:59:48.978Z,99.9
2022-12-25T18:19:48.935Z,99.9
2022-12-25T18:39:48.989Z,100
2022-12-25T18:59:48.958Z,100
2022-12-25T19:19:49.069Z,100
2022-12-25T19:39:49.016Z,100
2022-12-25T19:59:49.137Z,100
2022-12-25T20:19:49.205Z,100
2022-12-25T20:39:49.194Z,100
2022-12-25T20:59:49.290Z,100
2022-12-25T21:19:49.348Z,100
2022-12-25T21:39:49.290Z,100
2022-12-25T21:59:49.376Z,100
2022-12-25T22:19:49.447Z,100
2022-12-25T22:39:49.472Z,100
2022-12-25T23:19:49.522Z,100
2022-12-25T23:39:49.707Z,100
2022-12-25T23:59:49.673Z,100
